Heer Park, New York
Current Conditions -  °F | °C
As of 7:53 AM on Friday 28 Nov 2014 (Local Time) from KFRG Reporting Station
Clear Clear  
Wind Chill: -3°   Ceiling: Unl
Heat Index:   Visibility: 10mi
Dew Point: -6°   Wind: 7mph
Humidity: 64%   Direction: 320°NW
Pressure: 30.13"   Gusts: NA
Location:  40.6894°N, 73.3745°W
Report Text: KFRG 281253Z 32006KT 10SM CLR 01/M06 A3013 RMK AO2 SLP203 T00061056
Loading
Personal Weather Stations






























Interactive Weather Map New forecast layout! Learn more

10-Day Weather Forecast

Advertisements
Track Severe Weather on mobile